createdAt,value
2023-04-28T00:00:04.380Z,56.44
2023-04-28T00:02:37.117Z,56.36
2023-04-28T00:05:05.154Z,56.65
2023-04-28T00:07:35.064Z,56.35
2023-04-28T00:10:02.631Z,56.16
2023-04-28T00:12:33.664Z,56.67
2023-04-28T00:15:01.551Z,56.63
2023-04-28T00:17:35.168Z,56.36
2023-04-28T00:20:03.280Z,56.48
2023-04-28T00:22:33.516Z,56.50
2023-04-28T00:25:01.477Z,56.58
2023-04-28T00:27:29.452Z,56.55
2023-04-28T00:29:56.943Z,56.51
2023-04-28T00:32:24.511Z,56.78
2023-04-28T00:34:53.402Z,56.77
2023-04-28T00:37:21.169Z,56.71
2023-04-28T00:39:48.965Z,56.54
2023-04-28T00:42:16.578Z,56.86
2023-04-28T00:44:44.210Z,57.03
2023-04-28T00:47:11.999Z,57.04
2023-04-28T00:49:39.904Z,57.09
2023-04-28T00:52:07.433Z,57.40
2023-04-28T00:54:35.153Z,57.41
2023-04-28T00:57:04.926Z,57.44
2023-04-28T00:59:32.615Z,57.69
2023-04-28T01:02:00.895Z,57.45
2023-04-28T01:04:29.858Z,57.68
2023-04-28T01:06:58.743Z,57.66
2023-04-28T01:09:26.522Z,57.83
2023-04-28T01:11:55.755Z,57.87
2023-04-28T01:14:42.504Z,58.02
2023-04-28T01:17:10.862Z,58.02
2023-04-28T01:19:39.081Z,58.17
2023-04-28T01:22:07.391Z,58.11
2023-04-28T01:24:35.006Z,58.47
2023-04-28T01:27:06.166Z,58.67
2023-04-28T01:29:33.787Z,58.50
2023-04-28T01:32:02.070Z,58.81
2023-04-28T01:34:29.790Z,58.78
2023-04-28T01:36:57.305Z,58.78
2023-04-28T01:39:24.925Z,59.28
2023-04-28T01:41:52.554Z,59.48
2023-04-28T01:44:20.180Z,59.39
2023-04-28T01:46:49.570Z,59.79
2023-04-28T01:49:17.087Z,59.64
2023-04-28T01:51:45.109Z,59.75
2023-04-28T01:54:13.266Z,59.61
2023-04-28T01:56:41.394Z,59.65
2023-04-28T01:59:09.065Z,59.72
2023-04-28T02:01:36.849Z,60.08
2023-04-28T02:04:04.589Z,59.97
2023-04-28T02:06:35.165Z,59.89
2023-04-28T02:09:02.819Z,59.71
2023-04-28T02:11:30.312Z,59.87
2023-04-28T02:13:58.596Z,59.62
2023-04-28T02:16:46.335Z,59.55
2023-04-28T02:19:14.944Z,59.58
2023-04-28T02:21:43.487Z,59.63
2023-04-28T02:24:11.101Z,59.82
2023-04-28T02:26:38.671Z,59.74
2023-04-28T02:29:06.268Z,59.66
2023-04-28T02:31:34.340Z,59.66
2023-04-28T02:34:02.044Z,59.49
2023-04-28T02:36:29.758Z,59.73
2023-04-28T02:38:57.798Z,59.83
2023-04-28T02:41:26.481Z,60.26
2023-04-28T02:43:53.988Z,60.60
2023-04-28T02:46:21.616Z,60.61
2023-04-28T02:48:49.191Z,60.80
2023-04-28T02:51:16.734Z,60.69
2023-04-28T02:53:44.460Z,60.73
2023-04-28T02:56:12.184Z,60.77
2023-04-28T02:58:39.796Z,60.83
2023-04-28T03:01:07.348Z,60.82
2023-04-28T03:03:35.170Z,60.62
2023-04-28T03:06:03.296Z,60.85
2023-04-28T03:08:30.885Z,60.49
2023-04-28T03:10:58.515Z,60.53
2023-04-28T03:13:26.871Z,60.70
2023-04-28T03:15:54.517Z,60.83
2023-04-28T03:18:23.447Z,60.65
2023-04-28T03:20:51.208Z,60.70
2023-04-28T03:23:18.708Z,60.91
2023-04-28T03:25:46.370Z,60.94
2023-04-28T03:28:13.934Z,60.96
2023-04-28T03:30:41.496Z,60.86
2023-04-28T03:33:09.217Z,60.90
2023-04-28T03:35:36.983Z,60.79
2023-04-28T03:38:04.974Z,60.66
2023-04-28T03:40:32.801Z,60.68
2023-04-28T03:43:12.846Z,60.40
2023-04-28T03:45:47.049Z,60.20
2023-04-28T03:48:15.046Z,60.03
2023-04-28T03:50:43.498Z,59.83
2023-04-28T03:53:11.901Z,59.52
2023-04-28T03:55:39.614Z,59.22
2023-04-28T03:58:07.115Z,59.13
2023-04-28T04:00:35.654Z,59.14
2023-04-28T04:03:03.901Z,58.71
2023-04-28T04:05:31.712Z,58.74
2023-04-28T04:07:59.394Z,58.25
2023-04-28T04:10:26.942Z,58.42
2023-04-28T04:12:54.750Z,58.17
2023-04-28T04:15:22.427Z,57.84
2023-04-28T04:17:50.130Z,57.56
2023-04-28T04:20:17.800Z,57.59
2023-04-28T04:22:47.031Z,57.94
2023-04-28T04:25:15.970Z,57.60
2023-04-28T04:27:49.017Z,57.57
2023-04-28T04:30:16.640Z,57.24
2023-04-28T04:32:44.334Z,57.18
2023-04-28T04:35:12.957Z,57.18
2023-04-28T04:37:40.979Z,57.03
2023-04-28T04:40:09.252Z,57.24
2023-04-28T04:42:44.374Z,57.50
2023-04-28T04:45:18.955Z,57.67
2023-04-28T04:47:47.609Z,57.66
2023-04-28T04:50:15.576Z,57.76
2023-04-28T04:52:43.296Z,58.00
2023-04-28T04:55:13.903Z,58.01
2023-04-28T04:57:42.923Z,57.50
2023-04-28T05:00:30.913Z,57.77
2023-04-28T05:03:00.844Z,57.37
2023-04-28T05:05:28.841Z,57.79
2023-04-28T05:08:12.533Z,57.88
2023-04-28T05:10:40.515Z,57.98
2023-04-28T05:13:08.131Z,57.87
2023-04-28T05:15:36.222Z,57.89
2023-04-28T05:18:23.855Z,57.25
2023-04-28T05:20:51.300Z,57.33
2023-04-28T05:23:20.157Z,57.95
2023-04-28T05:25:49.038Z,58.13
2023-04-28T05:28:16.647Z,58.05
2023-04-28T05:30:45.884Z,57.85
2023-04-28T05:33:14.171Z,57.64
2023-04-28T05:35:43.106Z,57.77
2023-04-28T05:38:11.305Z,57.24
2023-04-28T05:40:39.245Z,57.29
2023-04-28T05:43:07.268Z,57.46
2023-04-28T05:45:35.321Z,57.74
2023-04-28T05:48:05.180Z,57.40
2023-04-28T05:50:33.307Z,57.46
2023-04-28T05:53:02.623Z,57.59
2023-04-28T05:55:31.585Z,57.39
2023-04-28T05:57:59.958Z,57.14
2023-04-28T06:00:28.292Z,56.99
2023-04-28T06:02:59.757Z,56.85
2023-04-28T06:05:30.548Z,57.34
2023-04-28T06:07:58.247Z,57.03
2023-04-28T06:10:26.652Z,57.27
2023-04-28T06:12:54.385Z,56.88
2023-04-28T06:15:22.270Z,57.08
2023-04-28T06:17:49.970Z,56.56
2023-04-28T06:20:18.369Z,56.68
2023-04-28T06:22:46.014Z,56.34
2023-04-28T06:25:13.758Z,55.93
2023-04-28T06:27:48.427Z,55.75
2023-04-28T06:30:20.514Z,56.08
2023-04-28T06:32:48.357Z,55.73
2023-04-28T06:35:16.874Z,55.99
2023-04-28T06:37:44.662Z,56.56
2023-04-28T06:40:12.385Z,57.04
2023-04-28T06:42:44.316Z,56.91
2023-04-28T06:45:17.258Z,56.80
2023-04-28T06:47:45.960Z,56.98
2023-04-28T06:50:13.862Z,56.75
2023-04-28T06:52:41.762Z,56.70
2023-04-28T06:55:09.964Z,56.63
2023-04-28T06:57:38.283Z,56.65
2023-04-28T07:00:08.505Z,56.65
2023-04-28T07:02:37.112Z,56.79
2023-04-28T07:05:05.296Z,55.81
2023-04-28T07:07:33.801Z,54.88
2023-04-28T07:10:02.330Z,55.32
2023-04-28T07:12:31.603Z,55.40
2023-04-28T07:14:59.216Z,55.91
2023-04-28T07:17:26.692Z,56.03
2023-04-28T07:19:54.217Z,56.63
2023-04-28T07:22:21.833Z,57.01
2023-04-28T07:24:49.417Z,57.69
2023-04-28T07:27:17.332Z,57.92
2023-04-28T07:29:45.019Z,58.19
2023-04-28T07:32:12.742Z,58.87
2023-04-28T07:34:40.307Z,58.70
2023-04-28T07:37:08.251Z,59.05
2023-04-28T07:39:35.883Z,59.55
2023-04-28T07:42:03.774Z,60.23
2023-04-28T07:44:32.145Z,60.75
2023-04-28T07:47:00.316Z,60.87
2023-04-28T07:49:31.953Z,60.55
2023-04-28T07:51:59.497Z,59.46
2023-04-28T07:54:26.974Z,59.07
2023-04-28T07:56:58.180Z,58.60
2023-04-28T07:59:26.005Z,56.34
2023-04-28T08:01:53.858Z,54.18
2023-04-28T08:04:22.205Z,53.39
2023-04-28T08:06:50.410Z,52.79
2023-04-28T08:09:17.929Z,54.06
2023-04-28T08:11:45.977Z,55.62
2023-04-28T08:14:14.146Z,56.76
2023-04-28T08:16:42.054Z,57.39
2023-04-28T08:19:10.040Z,58.60
2023-04-28T08:21:37.596Z,59.29
2023-04-28T08:24:05.369Z,59.83
2023-04-28T08:26:32.953Z,60.24
2023-04-28T08:29:00.457Z,61.13
2023-04-28T08:31:28.172Z,61.64
2023-04-28T08:33:55.842Z,62.64
2023-04-28T08:36:25.204Z,63.41
2023-04-28T08:38:52.964Z,64.04
2023-04-28T08:41:21.870Z,64.10
2023-04-28T08:43:49.878Z,64.55
2023-04-28T08:46:21.537Z,65.83
2023-04-28T08:48:50.162Z,65.43
2023-04-28T08:51:28.886Z,66.31
2023-04-28T08:56:39.292Z,66.06
2023-04-28T08:59:07.240Z,65.98
2023-04-28T09:01:34.875Z,66.73
2023-04-28T09:04:03.603Z,67.12
2023-04-28T09:06:35.414Z,67.58
2023-04-28T09:09:23.449Z,68.79
2023-04-28T09:11:56.178Z,68.47
2023-04-28T09:14:24.265Z,67.68
2023-04-28T09:16:52.782Z,67.06
2023-04-28T09:19:21.380Z,66.14
2023-04-28T09:21:56.090Z,64.25
2023-04-28T09:24:33.960Z,62.23
2023-04-28T09:27:03.519Z,62.47
2023-04-28T09:29:32.208Z,62.77
2023-04-28T09:32:22.434Z,63.78
2023-04-28T09:34:53.920Z,62.60
2023-04-28T09:37:23.633Z,61.58
2023-04-28T09:39:53.020Z,60.80
2023-04-28T09:42:35.697Z,60.44
2023-04-28T09:45:14.198Z,60.75
2023-04-28T09:47:48.022Z,60.68
2023-04-28T09:50:18.406Z,61.23
2023-04-28T09:52:59.358Z,62.34
2023-04-28T09:55:28.470Z,62.53
2023-04-28T09:57:56.605Z,63.08
2023-04-28T10:00:24.939Z,63.52
2023-04-28T10:02:53.353Z,63.63
2023-04-28T10:05:23.833Z,63.96
2023-04-28T10:07:55.320Z,63.95
2023-04-28T10:10:25.287Z,64.17
2023-04-28T10:12:53.272Z,64.06
2023-04-28T10:15:20.875Z,63.33
2023-04-28T10:17:50.959Z,62.20
2023-04-28T10:20:20.141Z,61.09
2023-04-28T10:23:09.424Z,59.23
2023-04-28T10:25:38.812Z,55.41
2023-04-28T10:28:09.403Z,53.04
2023-04-28T10:30:38.078Z,52.67
2023-04-28T10:33:15.027Z,53.20
2023-04-28T10:35:45.320Z,53.71
2023-04-28T10:38:14.248Z,54.43
2023-04-28T10:40:46.639Z,54.48
2023-04-28T10:43:37.049Z,55.32
2023-04-28T10:46:06.712Z,55.88
2023-04-28T10:48:34.734Z,56.89
2023-04-28T10:51:09.676Z,57.81
2023-04-28T10:53:47.169Z,58.51
2023-04-28T10:56:27.479Z,58.59
2023-04-28T10:58:57.027Z,59.20
2023-04-28T11:01:26.311Z,59.40
2023-04-28T11:04:10.978Z,59.86
2023-04-28T11:06:43.756Z,60.64
2023-04-28T11:09:20.012Z,60.91
2023-04-28T11:12:03.525Z,60.37
2023-04-28T11:14:33.900Z,60.88
2023-04-28T11:17:05.561Z,60.99
2023-04-28T11:19:38.169Z,61.71
2023-04-28T11:22:13.828Z,61.74
2023-04-28T11:24:41.912Z,62.10
2023-04-28T11:27:09.490Z,62.70
2023-04-28T11:29:39.899Z,63.32
2023-04-28T11:32:10.349Z,63.85
2023-04-28T11:34:38.371Z,63.70
2023-04-28T11:37:09.984Z,62.89
2023-04-28T11:39:37.801Z,62.33
2023-04-28T11:42:11.438Z,62.22
2023-04-28T11:44:39.466Z,61.22
2023-04-28T11:47:07.450Z,60.59
2023-04-28T11:49:46.267Z,60.75
2023-04-28T11:52:14.221Z,60.33
2023-04-28T11:54:44.783Z,60.01
2023-04-28T11:57:20.105Z,60.00
2023-04-28T11:59:49.280Z,59.66
2023-04-28T12:02:28.198Z,60.16
2023-04-28T12:04:56.197Z,59.57
2023-04-28T12:07:23.805Z,59.61
2023-04-28T12:10:10.908Z,60.00
2023-04-28T12:15:09.649Z,60.21
2023-04-28T12:17:42.021Z,60.86
2023-04-28T12:20:11.964Z,60.35
2023-04-28T12:22:50.739Z,61.60
2023-04-28T12:25:19.704Z,61.38
2023-04-28T12:28:08.502Z,62.68
2023-04-28T12:30:43.966Z,61.85
2023-04-28T12:33:25.697Z,62.70
2023-04-28T12:35:57.104Z,62.54
2023-04-28T12:38:25.371Z,63.11
2023-04-28T12:40:53.945Z,63.73
2023-04-28T12:43:23.532Z,63.96
2023-04-28T12:45:53.670Z,64.37
2023-04-28T12:48:24.127Z,64.84
2023-04-28T12:50:52.541Z,65.16
2023-04-28T12:53:20.356Z,65.55
2023-04-28T12:55:47.955Z,65.57
2023-04-28T12:58:18.085Z,65.71
2023-04-28T13:00:46.310Z,65.44
2023-04-28T13:03:13.953Z,65.66
2023-04-28T13:05:41.777Z,65.60
2023-04-28T13:08:09.619Z,65.67
2023-04-28T13:10:37.284Z,65.55
2023-04-28T13:13:05.642Z,65.52
2023-04-28T13:15:33.499Z,65.42
2023-04-28T13:18:01.343Z,65.50
2023-04-28T13:20:29.047Z,65.35
2023-04-28T13:22:56.553Z,65.38
2023-04-28T13:25:24.151Z,65.43
2023-04-28T13:27:52.078Z,65.43
2023-04-28T13:30:19.787Z,65.55
2023-04-28T13:32:47.259Z,65.73
2023-04-28T13:35:14.882Z,66.40
2023-04-28T13:37:45.927Z,66.15
2023-04-28T13:40:13.879Z,66.16
2023-04-28T13:42:41.504Z,66.57
2023-04-28T13:45:09.331Z,66.38
2023-04-28T13:47:36.909Z,66.53
2023-04-28T13:50:04.833Z,66.50
2023-04-28T13:52:32.564Z,66.14
2023-04-28T13:55:00.050Z,66.27
2023-04-28T13:57:27.812Z,66.31
2023-04-28T13:59:55.544Z,66.27
2023-04-28T14:02:23.492Z,66.14
2023-04-28T14:04:51.787Z,66.09
2023-04-28T14:07:19.830Z,66.30
2023-04-28T14:09:47.866Z,66.17
2023-04-28T14:12:16.339Z,66.32
2023-04-28T14:14:44.053Z,66.41
2023-04-28T14:17:12.640Z,66.02
2023-04-28T14:19:40.371Z,66.10
2023-04-28T14:22:07.870Z,66.10
2023-04-28T14:24:35.664Z,66.23
2023-04-28T14:27:03.212Z,65.87
2023-04-28T14:29:30.850Z,65.90
2023-04-28T14:31:58.338Z,65.72
2023-04-28T14:34:25.902Z,65.69
2023-04-28T14:36:53.466Z,65.55
2023-04-28T14:39:21.283Z,65.45
2023-04-28T14:41:48.927Z,65.22
2023-04-28T14:44:16.661Z,65.05
2023-04-28T14:46:44.516Z,65.46
2023-04-28T14:49:12.149Z,65.38
2023-04-28T14:51:39.997Z,65.50
2023-04-28T14:54:09.310Z,65.48
2023-04-28T14:56:36.797Z,65.65
2023-04-28T14:59:04.450Z,65.81
2023-04-28T15:01:32.131Z,65.81
2023-04-28T15:03:59.856Z,65.93
2023-04-28T15:06:28.357Z,66.06
2023-04-28T15:08:56.070Z,66.10
2023-04-28T15:11:23.765Z,66.47
2023-04-28T15:13:51.364Z,66.66
2023-04-28T15:16:19.606Z,66.73
2023-04-28T15:18:47.347Z,66.67
2023-04-28T15:21:17.562Z,66.89
2023-04-28T15:23:46.696Z,66.85
2023-04-28T15:26:14.398Z,66.77
2023-04-28T15:28:42.121Z,66.89
2023-04-28T15:31:09.650Z,67.04
2023-04-28T15:33:37.500Z,67.11
2023-04-28T15:36:07.922Z,67.24
2023-04-28T15:38:35.685Z,67.11
2023-04-28T15:41:03.213Z,66.92
2023-04-28T15:43:30.811Z,67.02
2023-04-28T15:45:59.612Z,67.00
2023-04-28T15:48:27.497Z,66.77
2023-04-28T15:50:54.994Z,66.73
2023-04-28T15:53:22.807Z,66.69
2023-04-28T15:55:50.802Z,66.85
2023-04-28T15:58:18.323Z,66.79
2023-04-28T16:00:46.250Z,66.68
2023-04-28T16:03:13.971Z,66.64
2023-04-28T16:05:41.680Z,66.58
2023-04-28T16:08:09.635Z,66.59
2023-04-28T16:10:38.550Z,66.65
2023-04-28T16:13:10.891Z,66.73
2023-04-28T16:15:38.949Z,66.71
2023-04-28T16:18:07.159Z,66.96
2023-04-28T16:20:34.709Z,67.08
2023-04-28T16:23:03.372Z,67.15
2023-04-28T16:25:31.396Z,67.08
2023-04-28T16:27:59.040Z,67.13
2023-04-28T16:30:26.686Z,66.79
2023-04-28T16:32:58.354Z,66.88
2023-04-28T16:35:26.200Z,66.84
2023-04-28T16:37:53.656Z,66.47
2023-04-28T16:40:21.698Z,66.50
2023-04-28T16:42:49.385Z,66.45
2023-04-28T16:45:16.966Z,66.16
2023-04-28T16:47:44.824Z,66.10
2023-04-28T16:50:14.957Z,66.19
2023-04-28T16:52:43.033Z,66.39
2023-04-28T16:55:10.860Z,66.16
2023-04-28T16:57:38.442Z,66.31
2023-04-28T17:00:06.893Z,66.31
2023-04-28T17:02:34.894Z,66.45
2023-04-28T17:05:02.554Z,66.26
2023-04-28T17:07:30.704Z,66.30
2023-04-28T17:09:58.288Z,66.27
2023-04-28T17:12:25.986Z,66.17
2023-04-28T17:14:54.757Z,66.44
2023-04-28T17:17:22.428Z,66.44
2023-04-28T17:19:50.324Z,66.50
2023-04-28T17:22:18.289Z,66.33
2023-04-28T17:24:45.851Z,66.20
2023-04-28T17:27:14.816Z,65.92
2023-04-28T17:29:43.489Z,65.29
2023-04-28T17:32:11.220Z,65.13
2023-04-28T17:34:38.978Z,64.89
2023-04-28T17:37:06.952Z,64.61
2023-04-28T17:39:34.810Z,64.40
2023-04-28T17:42:02.699Z,64.52
2023-04-28T17:44:30.573Z,64.55
2023-04-28T17:46:58.600Z,64.62
2023-04-28T17:49:26.452Z,64.55
2023-04-28T17:51:54.098Z,64.79
2023-04-28T17:54:21.827Z,64.78
2023-04-28T17:56:51.786Z,64.91
2023-04-28T17:59:19.424Z,64.79
2023-04-28T18:01:47.071Z,64.84
2023-04-28T18:04:14.866Z,64.88
2023-04-28T18:06:42.404Z,65.03
2023-04-28T18:09:10.047Z,65.11
2023-04-28T18:11:37.689Z,65.24
2023-04-28T18:14:05.188Z,65.51
2023-04-28T18:16:32.871Z,65.31
2023-04-28T18:19:00.569Z,65.54
2023-04-28T18:21:28.288Z,65.64
2023-04-28T18:23:55.947Z,65.79
2023-04-28T18:26:23.500Z,65.97
2023-04-28T18:28:51.160Z,66.27
2023-04-28T18:31:18.737Z,66.35
2023-04-28T18:33:46.261Z,66.71
2023-04-28T18:36:13.967Z,67.34
2023-04-28T18:38:41.549Z,67.52
2023-04-28T18:41:18.040Z,68.69
2023-04-28T18:43:45.721Z,68.00
2023-04-28T18:46:13.764Z,68.04
2023-04-28T18:48:41.614Z,67.99
2023-04-28T18:51:09.112Z,67.67
2023-04-28T18:53:36.999Z,67.54
2023-04-28T18:56:04.951Z,67.54
2023-04-28T18:58:32.833Z,67.63
2023-04-28T19:01:00.629Z,67.66
2023-04-28T19:03:28.556Z,67.39
2023-04-28T19:05:56.141Z,67.38
2023-04-28T19:08:23.804Z,67.56
2023-04-28T19:10:51.453Z,67.56
2023-04-28T19:13:20.112Z,67.66
2023-04-28T19:15:47.807Z,67.68
2023-04-28T19:18:15.959Z,67.83
2023-04-28T19:20:43.624Z,67.83
2023-04-28T19:23:11.315Z,67.83
2023-04-28T19:25:38.919Z,67.90
2023-04-28T19:28:06.480Z,67.90
2023-04-28T19:30:34.452Z,67.99
2023-04-28T19:33:02.067Z,68.22
2023-04-28T19:35:29.633Z,68.36
2023-04-28T19:37:57.272Z,68.51
2023-04-28T19:40:26.397Z,68.71
2023-04-28T19:42:55.557Z,68.96
2023-04-28T19:45:23.429Z,69.07
2023-04-28T19:47:51.948Z,69.36
2023-04-28T19:50:19.614Z,69.57
2023-04-28T19:52:47.697Z,69.98
2023-04-28T19:55:18.605Z,70.24
2023-04-28T19:57:47.951Z,70.20
2023-04-28T20:00:16.098Z,70.42
2023-04-28T20:02:44.775Z,70.29
2023-04-28T20:05:13.070Z,70.61
2023-04-28T20:07:42.747Z,70.84
2023-04-28T20:10:11.930Z,70.83
2023-04-28T20:12:40.619Z,71.11
2023-04-28T20:15:09.089Z,71.13
2023-04-28T20:17:36.897Z,71.11
2023-04-28T20:20:07.787Z,71.00
2023-04-28T20:22:35.593Z,71.14
2023-04-28T20:25:06.134Z,71.10
2023-04-28T20:27:34.358Z,70.91
2023-04-28T20:30:02.277Z,70.88
2023-04-28T20:32:33.876Z,70.72
2023-04-28T20:35:02.982Z,70.61
2023-04-28T20:37:34.257Z,70.49
2023-04-28T20:40:01.924Z,70.20
2023-04-28T20:42:33.452Z,70.29
2023-04-28T20:45:01.213Z,70.07
2023-04-28T20:47:32.469Z,69.79
2023-04-28T20:50:00.484Z,69.86
2023-04-28T20:52:28.858Z,69.59
2023-04-28T20:54:57.092Z,69.59
2023-04-28T20:57:24.717Z,69.31
2023-04-28T20:59:52.631Z,69.74
2023-04-28T21:02:20.667Z,69.18
2023-04-28T21:04:48.575Z,69.13
2023-04-28T21:07:17.259Z,68.78
2023-04-28T21:09:44.901Z,68.85
2023-04-28T21:12:13.863Z,68.85
2023-04-28T21:14:41.443Z,68.62
2023-04-28T21:17:09.195Z,68.23
2023-04-28T21:19:37.178Z,68.36
2023-04-28T21:22:04.847Z,68.25
2023-04-28T21:24:32.596Z,68.33
2023-04-28T21:27:00.148Z,68.16
2023-04-28T21:29:28.299Z,68.11
2023-04-28T21:31:55.981Z,68.01
2023-04-28T21:34:23.490Z,68.12
2023-04-28T21:36:51.516Z,68.17
2023-04-28T21:39:19.133Z,68.25
2023-04-28T21:41:46.990Z,68.17
2023-04-28T21:44:14.542Z,68.37
2023-04-28T21:46:42.042Z,68.66
2023-04-28T21:49:09.594Z,68.69
2023-04-28T21:51:37.814Z,68.50
2023-04-28T21:54:05.772Z,68.50
2023-04-28T21:56:34.087Z,67.93
2023-04-28T21:59:01.715Z,67.37
2023-04-28T22:01:30.055Z,67.79
2023-04-28T22:03:58.778Z,67.36
2023-04-28T22:06:27.074Z,67.55
2023-04-28T22:08:54.580Z,67.33
2023-04-28T22:11:22.391Z,67.61
2023-04-28T22:13:49.873Z,67.47
2023-04-28T22:16:17.575Z,67.57
2023-04-28T22:18:45.399Z,67.43
2023-04-28T22:21:14.002Z,67.42
2023-04-28T22:23:41.605Z,67.67
2023-04-28T22:26:09.199Z,67.95
2023-04-28T22:28:37.534Z,68.07
2023-04-28T22:31:05.217Z,67.95
2023-04-28T22:33:33.588Z,68.25
2023-04-28T22:36:01.250Z,68.28
2023-04-28T22:38:28.766Z,68.67
2023-04-28T22:40:56.448Z,68.98
2023-04-28T22:43:24.015Z,69.12
2023-04-28T22:45:52.624Z,69.26
2023-04-28T22:48:20.388Z,69.36
2023-04-28T22:50:47.854Z,69.77
2023-04-28T22:53:15.615Z,69.96
2023-04-28T22:55:43.618Z,70.25
2023-04-28T22:58:11.138Z,70.49
2023-04-28T23:00:38.637Z,70.75
2023-04-28T23:03:06.290Z,70.56
2023-04-28T23:05:37.288Z,70.84
2023-04-28T23:08:05.121Z,70.38
2023-04-28T23:10:32.663Z,70.54
2023-04-28T23:13:00.252Z,70.42
2023-04-28T23:15:27.719Z,70.47
2023-04-28T23:17:55.401Z,70.37
2023-04-28T23:20:23.043Z,70.38
2023-04-28T23:22:50.658Z,70.35
2023-04-28T23:25:18.180Z,70.19
2023-04-28T23:27:46.151Z,69.90
2023-04-28T23:30:13.824Z,70.15
2023-04-28T23:32:42.565Z,70.25
2023-04-28T23:35:10.776Z,70.10
2023-04-28T23:37:38.274Z,70.30
2023-04-28T23:40:06.951Z,70.25
2023-04-28T23:42:34.837Z,70.20
2023-04-28T23:45:02.542Z,70.23
2023-04-28T23:47:32.544Z,70.14
2023-04-28T23:50:00.176Z,70.23
2023-04-28T23:52:27.675Z,70.38
2023-04-28T23:54:55.158Z,70.67
2023-04-28T23:57:22.773Z,70.72
2023-04-28T23:59:50.594Z,70.63
